createdAt,value
2019-02-20T00:00:18.945Z,7.58
2019-02-20T00:02:46.865Z,7.49
2019-02-20T00:05:14.736Z,7.41
2019-02-20T00:07:42.660Z,7.35
2019-02-20T00:10:11.240Z,7.30
2019-02-20T00:12:39.378Z,7.25
2019-02-20T00:15:07.247Z,7.24
2019-02-20T00:17:35.008Z,7.22
2019-02-20T00:20:03.315Z,7.22
2019-02-20T00:22:39.794Z,7.24
2019-02-20T00:25:00.974Z,7.26
2019-02-20T00:27:28.841Z,7.28
2019-02-20T00:29:56.675Z,7.24
2019-02-20T00:32:24.430Z,7.24
2019-02-20T00:34:52.261Z,7.27
2019-02-20T00:37:20.043Z,7.31
2019-02-20T00:39:47.903Z,7.32
2019-02-20T00:42:15.964Z,7.32
2019-02-20T00:45:03.229Z,7.33
2019-02-20T00:47:49.147Z,7.40
2019-02-20T00:50:17.865Z,7.43
2019-02-20T00:53:03.359Z,7.49
2019-02-20T00:55:31.360Z,7.53
2019-02-20T00:57:59.101Z,7.51
2019-02-20T01:00:28.375Z,7.54
2019-02-20T01:02:56.282Z,7.60
2019-02-20T01:05:24.214Z,7.62
2019-02-20T01:07:51.952Z,7.59
2019-02-20T01:10:19.776Z,7.56
2019-02-20T01:12:47.553Z,7.56
2019-02-20T01:15:15.591Z,7.55
2019-02-20T01:17:43.441Z,7.55
2019-02-20T01:20:11.433Z,7.50
2019-02-20T01:22:39.805Z,7.55
2019-02-20T01:25:07.822Z,7.58
2019-02-20T01:27:35.670Z,7.60
2019-02-20T01:30:03.940Z,7.52
2019-02-20T01:32:31.704Z,7.53
2019-02-20T01:34:59.690Z,7.51
2019-02-20T01:37:27.551Z,7.53
2019-02-20T01:39:55.496Z,7.50
2019-02-20T01:42:23.247Z,7.58
2019-02-20T01:44:51.910Z,7.59
2019-02-20T01:47:19.761Z,7.54
2019-02-20T01:49:47.584Z,7.57
2019-02-20T01:52:15.382Z,7.54
2019-02-20T01:54:43.364Z,7.54
2019-02-20T01:57:11.344Z,7.52
2019-02-20T01:59:39.115Z,7.56
2019-02-20T02:02:07.023Z,7.52
2019-02-20T02:04:34.783Z,7.60
2019-02-20T02:07:02.816Z,7.53
2019-02-20T02:09:30.669Z,7.48
2019-02-20T02:11:58.470Z,7.52
2019-02-20T02:14:26.212Z,7.43
2019-02-20T02:16:54.198Z,7.44
2019-02-20T02:19:22.056Z,7.43
2019-02-20T02:21:49.855Z,7.47
2019-02-20T02:24:17.796Z,7.53
2019-02-20T02:26:45.743Z,7.51
2019-02-20T02:29:13.560Z,7.49
2019-02-20T02:31:41.794Z,7.47
2019-02-20T02:34:19.303Z,7.50
2019-02-20T02:36:48.002Z,7.51
2019-02-20T02:39:15.748Z,7.58
2019-02-20T02:41:44.828Z,7.57
2019-02-20T02:44:12.824Z,7.54
2019-02-20T02:46:40.725Z,7.52
2019-02-20T02:49:08.533Z,7.54
2019-02-20T02:51:36.417Z,7.52
2019-02-20T02:54:04.305Z,7.51
2019-02-20T02:56:32.201Z,7.54
2019-02-20T02:59:00.721Z,7.53
2019-02-20T03:01:29.284Z,7.54
2019-02-20T03:03:57.111Z,7.55
2019-02-20T03:06:24.959Z,7.56
2019-02-20T03:08:52.696Z,7.50
2019-02-20T03:11:20.443Z,7.55
2019-02-20T03:13:48.237Z,7.57
2019-02-20T03:16:16.080Z,7.55
2019-02-20T03:18:43.992Z,7.59
2019-02-20T03:21:11.758Z,7.63
2019-02-20T03:23:40.412Z,7.55
2019-02-20T03:26:08.857Z,7.57
2019-02-20T03:28:36.687Z,7.60
2019-02-20T03:31:04.460Z,7.61
2019-02-20T03:33:32.297Z,7.46
2019-02-20T03:36:02.884Z,7.48
2019-02-20T03:38:30.818Z,7.46
2019-02-20T03:40:58.849Z,7.43
2019-02-20T03:43:26.787Z,7.55
2019-02-20T03:45:54.659Z,7.47
2019-02-20T03:48:22.487Z,7.47
2019-02-20T03:50:50.431Z,7.48
2019-02-20T03:53:18.363Z,7.48
2019-02-20T03:55:46.809Z,7.47
2019-02-20T03:58:14.928Z,7.50
2019-02-20T04:00:42.773Z,7.47
2019-02-20T04:03:10.705Z,7.44
2019-02-20T04:05:38.672Z,7.48
2019-02-20T04:08:06.697Z,7.53
2019-02-20T04:10:34.465Z,7.48
2019-02-20T04:13:02.296Z,7.49
2019-02-20T04:15:30.232Z,7.46
2019-02-20T04:17:58.346Z,7.50
2019-02-20T04:20:26.158Z,7.46
2019-02-20T04:22:54.158Z,7.40
2019-02-20T04:25:21.932Z,7.37
2019-02-20T04:27:49.700Z,7.45
2019-02-20T04:30:18.213Z,7.40
2019-02-20T04:32:46.032Z,7.40
2019-02-20T04:35:13.825Z,7.35
2019-02-20T04:37:41.746Z,7.44
2019-02-20T04:40:09.844Z,7.43
2019-02-20T04:42:37.612Z,7.41
2019-02-20T04:45:06.115Z,7.40
2019-02-20T04:47:33.857Z,7.40
2019-02-20T04:50:01.852Z,7.37
2019-02-20T04:52:29.723Z,7.37
2019-02-20T04:54:58.129Z,7.41
2019-02-20T04:57:25.886Z,7.45
2019-02-20T04:59:53.692Z,7.49
2019-02-20T05:02:21.542Z,7.48
2019-02-20T05:04:49.572Z,7.51
2019-02-20T05:07:17.325Z,7.54
2019-02-20T05:09:48.064Z,7.47
2019-02-20T05:12:15.896Z,7.42
2019-02-20T05:14:44.527Z,7.47
2019-02-20T05:17:12.485Z,7.42
2019-02-20T05:19:40.385Z,7.47
2019-02-20T05:22:08.131Z,7.47
2019-02-20T05:24:35.951Z,7.42
2019-02-20T05:27:03.922Z,7.38
2019-02-20T05:29:31.836Z,7.41
2019-02-20T05:31:59.575Z,7.30
2019-02-20T05:34:27.490Z,7.37
2019-02-20T05:36:55.347Z,7.40
2019-02-20T05:39:23.171Z,7.40
2019-02-20T05:41:50.950Z,7.39
2019-02-20T05:44:18.752Z,7.39
2019-02-20T05:46:46.647Z,7.37
2019-02-20T05:49:14.405Z,7.42
2019-02-20T05:51:42.291Z,7.43
2019-02-20T05:54:10.070Z,7.39
2019-02-20T05:56:37.880Z,7.40
2019-02-20T05:59:05.837Z,7.43
2019-02-20T06:01:33.654Z,7.36
2019-02-20T06:04:01.494Z,7.41
2019-02-20T06:06:29.448Z,7.42
2019-02-20T06:08:57.422Z,7.45
2019-02-20T06:11:25.238Z,7.43
2019-02-20T06:13:53.007Z,7.42
2019-02-20T06:16:20.940Z,7.38
2019-02-20T06:18:48.699Z,7.40
2019-02-20T06:21:16.582Z,7.38
2019-02-20T06:23:44.409Z,7.48
2019-02-20T06:26:12.352Z,7.48
2019-02-20T06:28:40.198Z,7.44
2019-02-20T06:31:08.048Z,7.52
2019-02-20T06:33:36.427Z,7.49
2019-02-20T06:36:04.386Z,7.47
2019-02-20T06:38:32.182Z,7.42
2019-02-20T06:41:00.113Z,7.44
2019-02-20T06:43:27.940Z,7.42
2019-02-20T06:45:55.728Z,7.43
2019-02-20T06:48:23.494Z,7.41
2019-02-20T06:50:51.448Z,7.42
2019-02-20T06:55:53.984Z,7.54
2019-02-20T06:58:21.921Z,7.50
2019-02-20T07:00:49.730Z,7.46
2019-02-20T07:03:17.460Z,7.47
2019-02-20T07:06:09.466Z,7.53
2019-02-20T07:08:54.108Z,7.51
2019-02-20T07:12:02.570Z,7.57
2019-02-20T07:15:02.313Z,7.58
2019-02-20T07:18:02.404Z,7.58
2019-02-20T07:21:08.627Z,7.62
2019-02-20T07:24:03.019Z,7.61
2019-02-20T07:27:03.555Z,7.64
2019-02-20T07:29:59.801Z,7.71
2019-02-20T07:32:27.558Z,7.68
2019-02-20T07:34:55.501Z,7.64
2019-02-20T07:37:23.361Z,7.66
2019-02-20T07:39:51.313Z,7.68
2019-02-20T07:42:19.278Z,7.69
2019-02-20T07:44:47.073Z,7.84
2019-02-20T07:47:14.867Z,7.78
2019-02-20T07:49:42.623Z,7.81
2019-02-20T07:52:10.600Z,7.81
2019-02-20T07:54:38.350Z,7.77
2019-02-20T07:57:06.264Z,7.78
2019-02-20T07:59:34.000Z,7.84
2019-02-20T08:02:01.835Z,7.87
2019-02-20T08:04:29.584Z,7.88
2019-02-20T08:06:57.377Z,7.93
2019-02-20T08:09:25.369Z,7.90
2019-02-20T08:11:53.286Z,7.98
2019-02-20T08:14:21.115Z,7.93
2019-02-20T08:16:52.215Z,8.01
2019-02-20T08:19:18.613Z,8.01
2019-02-20T08:21:46.438Z,8.02
2019-02-20T08:24:14.173Z,7.97
2019-02-20T08:26:42.062Z,8.06
2019-02-20T08:29:10.252Z,8.15
2019-02-20T08:31:38.094Z,8.08
2019-02-20T08:34:05.962Z,8.08
2019-02-20T08:36:33.870Z,8.05
2019-02-20T08:39:01.625Z,8.10
2019-02-20T08:41:29.383Z,8.14
2019-02-20T08:43:57.277Z,8.16
2019-02-20T08:46:25.026Z,8.17
2019-02-20T08:48:52.834Z,8.23
2019-02-20T08:51:20.645Z,8.24
2019-02-20T08:53:48.450Z,8.27
2019-02-20T08:56:16.287Z,8.22
2019-02-20T08:58:44.176Z,8.26
2019-02-20T09:01:11.914Z,8.22
2019-02-20T09:03:39.838Z,8.24
2019-02-20T09:06:08.788Z,8.29
2019-02-20T09:08:36.616Z,8.36
2019-02-20T09:11:04.554Z,8.31
2019-02-20T09:13:32.928Z,8.49
2019-02-20T09:16:00.673Z,8.98
2019-02-20T09:18:28.494Z,9.37
2019-02-20T09:20:56.254Z,9.66
2019-02-20T09:23:24.041Z,9.82
2019-02-20T09:25:51.890Z,9.92
2019-02-20T09:28:19.708Z,9.69
2019-02-20T09:30:47.481Z,9.35
2019-02-20T09:33:15.391Z,9.12
2019-02-20T09:35:43.165Z,9.05
2019-02-20T09:38:10.966Z,9.06
2019-02-20T09:40:38.813Z,9.01
2019-02-20T09:43:06.767Z,8.95
2019-02-20T09:45:41.748Z,8.83
2019-02-20T09:48:04.482Z,8.79
2019-02-20T09:50:32.304Z,8.86
2019-02-20T09:53:00.133Z,8.81
2019-02-20T09:55:31.625Z,8.83
2019-02-20T09:57:59.654Z,8.79
2019-02-20T10:00:27.674Z,8.77
2019-02-20T10:02:55.545Z,8.71
2019-02-20T10:05:23.374Z,8.77
2019-02-20T10:07:51.173Z,8.79
2019-02-20T10:10:19.113Z,8.81
2019-02-20T10:12:46.886Z,8.75
2019-02-20T10:15:14.909Z,8.80
2019-02-20T10:17:42.787Z,8.81
2019-02-20T10:20:10.858Z,8.81
2019-02-20T10:22:38.749Z,8.85
2019-02-20T10:25:06.938Z,8.96
2019-02-20T10:27:35.174Z,8.94
2019-02-20T10:30:03.523Z,8.88
2019-02-20T10:32:31.491Z,8.84
2019-02-20T10:34:59.502Z,8.91
2019-02-20T10:37:27.278Z,8.88
2019-02-20T10:39:55.292Z,8.86
2019-02-20T10:42:23.476Z,8.91
2019-02-20T10:44:51.922Z,8.91
2019-02-20T10:47:19.710Z,8.94
2019-02-20T10:49:47.635Z,9.02
2019-02-20T10:52:15.672Z,9.04
2019-02-20T10:54:43.504Z,9.05
2019-02-20T10:57:11.425Z,9.02
2019-02-20T10:59:43.866Z,9.13
2019-02-20T11:02:12.116Z,9.12
2019-02-20T11:04:39.955Z,9.07
2019-02-20T11:07:07.858Z,9.09
2019-02-20T11:09:35.769Z,9.15
2019-02-20T11:12:03.544Z,9.14
2019-02-20T11:14:32.116Z,9.16
2019-02-20T11:16:59.949Z,9.23
2019-02-20T11:19:27.785Z,9.16
2019-02-20T11:21:55.635Z,9.20
2019-02-20T11:24:23.489Z,9.24
2019-02-20T11:26:55.054Z,9.19
2019-02-20T11:29:21.249Z,9.23
2019-02-20T11:31:49.863Z,9.21
2019-02-20T11:34:19.763Z,9.25
2019-02-20T11:36:49.326Z,9.27
2019-02-20T11:39:17.538Z,9.27
2019-02-20T11:41:46.750Z,9.29
2019-02-20T11:44:20.770Z,9.25
2019-02-20T11:46:44.722Z,9.29
2019-02-20T11:49:12.517Z,9.23
2019-02-20T11:51:40.498Z,9.28
2019-02-20T11:54:08.473Z,9.33
2019-02-20T11:56:36.344Z,9.37
2019-02-20T11:59:04.323Z,9.32
2019-02-20T12:01:32.324Z,9.27
2019-02-20T12:04:00.100Z,9.30
2019-02-20T12:06:27.957Z,9.30
2019-02-20T12:08:55.815Z,9.30
2019-02-20T12:11:23.625Z,9.28
2019-02-20T12:13:51.700Z,9.26
2019-02-20T12:16:19.508Z,9.27
2019-02-20T12:18:47.393Z,9.24
2019-02-20T12:21:15.384Z,9.29
2019-02-20T12:23:43.318Z,9.33
2019-02-20T12:26:11.370Z,9.34
2019-02-20T12:28:39.847Z,9.38
2019-02-20T12:31:07.790Z,9.44
2019-02-20T12:33:35.630Z,9.47
2019-02-20T12:36:03.731Z,9.43
2019-02-20T12:38:31.746Z,9.47
2019-02-20T12:41:00.113Z,9.49
2019-02-20T12:43:27.948Z,9.45
2019-02-20T12:45:55.821Z,9.50
2019-02-20T12:48:23.616Z,9.61
2019-02-20T12:50:52.173Z,9.65
2019-02-20T12:53:20.036Z,9.66
2019-02-20T12:55:47.907Z,9.71
2019-02-20T12:58:15.759Z,9.67
2019-02-20T13:00:43.831Z,9.69
2019-02-20T13:03:12.333Z,9.77
2019-02-20T13:05:40.137Z,9.74
2019-02-20T13:08:08.077Z,9.71
2019-02-20T13:10:36.932Z,9.80
2019-02-20T13:13:04.877Z,9.85
2019-02-20T13:15:32.870Z,9.85
2019-02-20T13:18:00.787Z,9.88
2019-02-20T13:20:28.547Z,9.88
2019-02-20T13:22:56.876Z,9.98
2019-02-20T13:25:24.625Z,10.11
2019-02-20T13:27:52.469Z,10.10
2019-02-20T13:30:20.244Z,10.09
2019-02-20T13:32:50.957Z,10.05
2019-02-20T13:35:18.849Z,10.08
2019-02-20T13:37:46.657Z,10.18
2019-02-20T13:40:14.635Z,10.13
2019-02-20T13:42:42.474Z,10.16
2019-02-20T13:45:10.417Z,10.15
2019-02-20T13:47:40.292Z,10.01
2019-02-20T13:50:08.298Z,10.07
2019-02-20T13:52:36.305Z,10.05
2019-02-20T13:55:06.218Z,10.03
2019-02-20T13:57:34.361Z,10.04
2019-02-20T14:00:02.403Z,9.94
2019-02-20T14:02:30.356Z,10.00
2019-02-20T14:04:58.150Z,9.92
2019-02-20T14:07:26.012Z,9.92
2019-02-20T14:09:53.923Z,9.92
2019-02-20T14:12:21.874Z,9.93
2019-02-20T14:14:49.669Z,9.85
2019-02-20T14:17:26.241Z,9.84
2019-02-20T14:19:47.379Z,9.86
2019-02-20T14:22:15.255Z,9.79
2019-02-20T14:24:43.114Z,9.79
2019-02-20T14:27:11.338Z,9.85
2019-02-20T14:29:39.408Z,9.88
2019-02-20T14:32:07.591Z,9.86
2019-02-20T14:34:35.518Z,9.85
2019-02-20T14:37:03.388Z,9.87
2019-02-20T14:39:31.230Z,9.95
2019-02-20T14:42:00.963Z,9.92
2019-02-20T14:44:28.846Z,9.98
2019-02-20T14:46:56.738Z,10.05
2019-02-20T14:49:24.737Z,10.00
2019-02-20T14:51:53.410Z,10.00
2019-02-20T14:54:21.514Z,10.04
2019-02-20T14:56:49.422Z,10.10
2019-02-20T14:59:17.377Z,10.03
2019-02-20T15:01:45.147Z,10.08
2019-02-20T15:04:13.295Z,10.07
2019-02-20T15:06:41.080Z,10.13
2019-02-20T15:09:09.053Z,10.06
2019-02-20T15:11:37.098Z,10.01
2019-02-20T15:14:05.034Z,10.03
2019-02-20T15:16:32.850Z,9.92
2019-02-20T15:19:00.615Z,9.95
2019-02-20T15:21:28.613Z,9.93
2019-02-20T15:23:56.487Z,9.89
2019-02-20T15:26:24.424Z,9.83
2019-02-20T15:28:52.170Z,9.85
2019-02-20T15:31:21.348Z,9.88
2019-02-20T15:33:49.224Z,9.80
2019-02-20T15:36:17.152Z,9.86
2019-02-20T15:38:46.108Z,9.86
2019-02-20T15:41:14.018Z,9.81
2019-02-20T15:43:53.156Z,9.80
2019-02-20T15:46:21.123Z,9.70
2019-02-20T15:48:48.889Z,9.70
2019-02-20T15:51:16.694Z,9.68
2019-02-20T15:53:44.956Z,9.66
2019-02-20T15:56:12.947Z,9.68
2019-02-20T15:58:40.974Z,9.64
2019-02-20T16:01:09.455Z,9.67
2019-02-20T16:03:38.022Z,9.60
2019-02-20T16:06:05.958Z,9.58
2019-02-20T16:08:33.943Z,9.52
2019-02-20T16:11:02.264Z,9.59
2019-02-20T16:13:30.059Z,9.52
2019-02-20T16:15:57.992Z,9.55
2019-02-20T16:18:25.940Z,9.51
2019-02-20T16:20:53.967Z,9.50
2019-02-20T16:23:21.842Z,9.46
2019-02-20T16:25:49.601Z,9.44
2019-02-20T16:28:17.814Z,9.44
2019-02-20T16:30:45.684Z,9.43
2019-02-20T16:33:13.506Z,9.45
2019-02-20T16:35:41.371Z,9.37
2019-02-20T16:38:09.310Z,9.36
2019-02-20T16:40:37.081Z,9.38
2019-02-20T16:43:05.128Z,9.36
2019-02-20T16:45:33.385Z,9.32
2019-02-20T16:48:01.312Z,9.30
2019-02-20T16:50:29.090Z,9.28
2019-02-20T16:52:56.893Z,9.26
2019-02-20T16:55:24.694Z,9.29
2019-02-20T16:57:56.554Z,9.26
2019-02-20T17:00:23.399Z,9.23
2019-02-20T17:02:51.709Z,9.22
2019-02-20T17:05:19.658Z,9.25
2019-02-20T17:07:47.690Z,9.23
2019-02-20T17:10:15.859Z,9.20
2019-02-20T17:12:43.892Z,9.22
2019-02-20T17:15:12.209Z,9.24
2019-02-20T17:17:40.226Z,9.20
2019-02-20T17:20:10.393Z,9.17
2019-02-20T17:22:38.470Z,9.17
2019-02-20T17:25:07.483Z,9.13
2019-02-20T17:27:35.477Z,9.16
2019-02-20T17:30:03.788Z,9.15
2019-02-20T17:32:33.042Z,9.17
2019-02-20T17:35:01.472Z,9.18
2019-02-20T17:37:29.388Z,9.11
2019-02-20T17:39:57.145Z,9.12
2019-02-20T17:42:24.971Z,9.09
2019-02-20T17:44:52.839Z,9.09
2019-02-20T17:47:20.738Z,9.10
2019-02-20T17:49:48.577Z,9.23
2019-02-20T17:52:16.831Z,9.68
2019-02-20T17:54:44.649Z,10.06
2019-02-20T17:57:12.676Z,9.96
2019-02-20T17:59:41.263Z,9.75
2019-02-20T18:02:09.524Z,9.64
2019-02-20T18:04:37.351Z,9.45
2019-02-20T18:07:05.293Z,9.41
2019-02-20T18:09:33.203Z,9.35
2019-02-20T18:12:01.586Z,9.28
2019-02-20T18:14:29.515Z,9.21
2019-02-20T18:16:58.094Z,9.11
2019-02-20T18:19:29.514Z,9.13
2019-02-20T18:21:57.463Z,9.10
2019-02-20T18:24:26.133Z,9.07
2019-02-20T18:26:53.944Z,9.05
2019-02-20T18:29:21.790Z,9.06
2019-02-20T18:31:49.675Z,9.02
2019-02-20T18:34:17.527Z,9.03
2019-02-20T18:36:45.391Z,9.56
2019-02-20T18:39:13.395Z,9.98
2019-02-20T18:41:41.250Z,9.89
2019-02-20T18:44:09.368Z,9.75
2019-02-20T18:46:37.140Z,9.66
2019-02-20T18:49:05.072Z,10.11
2019-02-20T18:51:32.820Z,10.50
2019-02-20T18:54:00.621Z,10.70
2019-02-20T18:56:28.418Z,10.44
2019-02-20T18:58:56.426Z,10.19
2019-02-20T19:01:24.268Z,9.98
2019-02-20T19:03:52.872Z,9.76
2019-02-20T19:06:20.756Z,9.64
2019-02-20T19:09:02.374Z,9.54
2019-02-20T19:11:53.360Z,9.49
2019-02-20T19:14:40.661Z,9.39
2019-02-20T19:17:51.033Z,9.30
2019-02-20T19:20:35.533Z,9.25
2019-02-20T19:23:36.804Z,9.22
2019-02-20T19:26:36.952Z,9.13
2019-02-20T19:29:43.398Z,9.08
2019-02-20T19:33:14.136Z,9.05
2019-02-20T19:36:11.692Z,9.05
2019-02-20T19:39:27.070Z,9.86
2019-02-20T19:42:46.691Z,10.49
2019-02-20T19:45:44.134Z,10.25
2019-02-20T19:48:49.432Z,9.90
2019-02-20T19:52:11.478Z,9.66
2019-02-20T19:54:57.767Z,9.46
2019-02-20T19:57:57.208Z,9.36
2019-02-20T20:01:02.023Z,9.27
2019-02-20T20:03:52.996Z,9.17
2019-02-20T20:06:49.685Z,9.13
2019-02-20T20:09:28.329Z,9.07
2019-02-20T20:12:33.465Z,9.06
2019-02-20T20:15:41.890Z,9.02
2019-02-20T20:18:50.203Z,8.95
2019-02-20T20:21:57.180Z,8.93
2019-02-20T20:24:56.885Z,8.89
2019-02-20T20:27:52.603Z,8.84
2019-02-20T20:30:43.635Z,8.83
2019-02-20T20:34:01.885Z,8.85
2019-02-20T20:37:16.151Z,8.81
2019-02-20T20:40:28.272Z,8.77
2019-02-20T20:43:40.106Z,8.74
2019-02-20T20:46:41.397Z,8.70
2019-02-20T20:49:37.591Z,8.66
2019-02-20T20:52:32.878Z,8.65
2019-02-20T20:55:33.882Z,8.69
2019-02-20T20:58:35.226Z,8.70
2019-02-20T21:01:36.564Z,8.68
2019-02-20T21:04:56.950Z,8.66
2019-02-20T21:07:52.729Z,8.62
2019-02-20T21:10:57.938Z,8.62
2019-02-20T21:13:39.453Z,8.59
2019-02-20T21:17:00.511Z,8.56
2019-02-20T21:20:05.619Z,8.55
2019-02-20T21:23:11.489Z,8.57
2019-02-20T21:26:33.873Z,8.54
2019-02-20T21:29:40.048Z,8.50
2019-02-20T21:33:00.111Z,8.52
2019-02-20T21:36:06.851Z,8.54
2019-02-20T21:38:59.333Z,8.51
2019-02-20T21:42:05.300Z,8.52
2019-02-20T21:44:54.957Z,8.49
2019-02-20T21:47:58.860Z,8.51
2019-02-20T21:50:49.298Z,8.51
2019-02-20T21:54:10.678Z,8.52
2019-02-20T21:57:12.550Z,8.50
2019-02-20T22:00:03.674Z,8.48
2019-02-20T22:02:54.838Z,8.48
2019-02-20T22:06:01.888Z,8.49
2019-02-20T22:09:13.277Z,8.48
2019-02-20T22:12:37.520Z,8.46
2019-02-20T22:15:55.279Z,8.45
2019-02-20T22:19:05.249Z,8.45
2019-02-20T22:22:00.278Z,8.40
2019-02-20T22:25:12.435Z,8.45
2019-02-20T22:28:03.939Z,8.43
2019-02-20T22:31:06.974Z,8.41
2019-02-20T22:33:55.696Z,8.42
2019-02-20T22:37:00.740Z,8.42
2019-02-20T22:39:53.739Z,8.43
2019-02-20T22:43:14.333Z,8.42
2019-02-20T22:45:56.684Z,8.42
2019-02-20T22:49:14.015Z,8.41
2019-02-20T22:52:11.369Z,8.41
2019-02-20T22:55:15.622Z,8.46
2019-02-20T22:57:50.614Z,8.43
2019-02-20T23:01:03.248Z,8.44
2019-02-20T23:03:59.171Z,8.45
2019-02-20T23:06:48.148Z,8.44
2019-02-20T23:09:43.491Z,8.44
2019-02-20T23:13:00.108Z,8.42
2019-02-20T23:15:28.060Z,8.47
2019-02-20T23:17:55.980Z,8.48
2019-02-20T23:20:23.748Z,8.49
2019-02-20T23:22:51.661Z,8.48
2019-02-20T23:25:19.543Z,8.45
2019-02-20T23:27:47.290Z,8.47
2019-02-20T23:30:18.556Z,8.49
2019-02-20T23:32:46.571Z,8.50
2019-02-20T23:35:14.516Z,8.49
2019-02-20T23:37:42.263Z,8.52
2019-02-20T23:40:10.305Z,8.52
2019-02-20T23:42:38.084Z,8.52
2019-02-20T23:45:06.091Z,8.51
2019-02-20T23:47:34.492Z,8.52
2019-02-20T23:50:02.348Z,8.51
2019-02-20T23:52:30.165Z,8.50
2019-02-20T23:54:57.947Z,8.53
2019-02-20T23:57:25.857Z,8.50
2019-02-20T23:59:53.944Z,8.51
